Time;durP1;ratioP1;P1;durP2;ratioP2;P2;SDS_P1;SDS_P2;PMS_P1;PMS_P2;Temp;Humidity;BMP_temperature;BMP_pressure;BME280_temperature;BME280_humidity;BME280_pressure;Samples;Min_cycle;Max_cycle;Signal;HPM_P1;HPM_P2
2022/12/23 00:00:34;;;;;;;25.07;18.83;;;;;;;;;;5032524;28;20649;-47
2022/12/23 00:03:00;;;;;;;22.37;17.33;;;;;;;;;;5032316;28;20255;-47
2022/12/23 00:05:26;;;;;;;22.63;17.33;;;;;;;;;;5032454;28;20299;-47
2022/12/23 00:07:53;;;;;;;20.87;17.63;;;;;;;;;;5032438;28;20612;-47
2022/12/23 00:10:19;;;;;;;21.17;17.70;;;;;;;;;;5031992;28;20686;-48
2022/12/23 00:15:30;;;;;;;20.20;16.63;;;;;;;;;;5032365;28;20682;-48
2022/12/23 00:17:56;;;;;;;20.13;16.10;;;;;;;;;;5032091;28;20200;-47
2022/12/23 00:20:22;;;;;;;19.83;15.83;;;;;;;;;;5031988;28;20655;-47
2022/12/23 00:23:06;;;;;;;18.30;15.73;;;;;;;;;;5032172;28;20205;-47
2022/12/23 00:25:40;;;;;;;19.70;16.20;;;;;;;;;;5032138;28;20564;-47
2022/12/23 00:28:06;;;;;;;17.77;15.37;;;;;;;;;;5031855;28;20279;-46
2022/12/23 00:30:32;;;;;;;18.27;15.37;;;;;;;;;;5032111;28;20197;-47
2022/12/23 00:32:58;;;;;;;16.70;14.80;;;;;;;;;;5031905;28;20204;-47
2022/12/23 00:35:24;;;;;;;16.83;14.37;;;;;;;;;;5031900;28;20221;-47
2022/12/23 00:37:50;;;;;;;18.70;15.57;;;;;;;;;;5031949;28;20247;-46
2022/12/23 00:43:02;;;;;;;16.20;14.23;;;;;;;;;;5023774;28;20212;-47
2022/12/23 00:45:28;;;;;;;15.80;13.97;;;;;;;;;;5011870;28;20216;-47
2022/12/23 00:50:39;;;;;;;17.13;14.37;;;;;;;;;;5012095;28;20219;-47
2022/12/23 00:53:05;;;;;;;15.60;13.70;;;;;;;;;;5011492;28;20198;-47
2022/12/23 00:55:32;;;;;;;16.53;14.27;;;;;;;;;;5012135;28;20202;-47
2022/12/23 00:57:58;;;;;;;16.17;14.30;;;;;;;;;;5011323;28;20224;-47
2022/12/23 01:05:57;;;;;;;15.60;13.33;;;;;;;;;;5011921;28;20710;-47
2022/12/23 01:08:23;;;;;;;16.27;13.70;;;;;;;;;;5011816;28;20198;-47
2022/12/23 01:10:49;;;;;;;14.00;12.50;;;;;;;;;;5008281;28;20259;-47
2022/12/23 01:13:15;;;;;;;14.50;12.30;;;;;;;;;;5011896;28;20201;-47
2022/12/23 01:15:42;;;;;;;12.57;11.27;;;;;;;;;;5011726;28;20189;-47
2022/12/23 01:18:08;;;;;;;12.20;10.73;;;;;;;;;;5011774;28;20210;-46
2022/12/23 01:20:36;;;;;;;12.50;11.20;;;;;;;;;;5011755;28;20235;-46
2022/12/23 01:23:02;;;;;;;12.87;11.57;;;;;;;;;;5011723;28;20197;-46
2022/12/23 01:25:29;;;;;;;12.60;11.30;;;;;;;;;;5011914;28;20604;-46
2022/12/23 01:27:55;;;;;;;13.10;11.50;;;;;;;;;;5011616;28;20194;-47
2022/12/23 01:30:21;;;;;;;14.13;12.57;;;;;;;;;;5011726;28;20720;-47
2022/12/23 01:32:48;;;;;;;14.63;13.10;;;;;;;;;;5011599;28;20240;-46
2022/12/23 01:35:15;;;;;;;13.97;12.43;;;;;;;;;;5011432;28;20236;-47
2022/12/23 01:37:41;;;;;;;13.23;11.80;;;;;;;;;;5011799;28;20212;-47
2022/12/23 01:40:07;;;;;;;13.63;11.57;;;;;;;;;;5011442;28;20234;-47
2022/12/23 01:42:42;;;;;;;11.73;10.50;;;;;;;;;;5011601;28;20216;-47
2022/12/23 01:45:13;;;;;;;11.60;10.40;;;;;;;;;;5011621;28;20247;-47
2022/12/23 01:47:40;;;;;;;11.07;9.97;;;;;;;;;;5011671;28;20210;-47
2022/12/23 01:50:10;;;;;;;11.87;10.67;;;;;;;;;;5011425;28;20272;-47
2022/12/23 01:52:40;;;;;;;12.13;10.83;;;;;;;;;;5011583;28;20213;-47
2022/12/23 01:55:07;;;;;;;10.63;9.60;;;;;;;;;;5011380;28;20240;-47
2022/12/23 01:57:33;;;;;;;10.60;9.50;;;;;;;;;;5011513;28;20300;-47
2022/12/23 02:05:31;;;;;;;11.43;10.23;;;;;;;;;;5011700;28;20271;-47
2022/12/23 02:10:50;;;;;;;11.80;10.60;;;;;;;;;;5014730;28;20228;-47
2022/12/23 02:13:20;;;;;;;12.13;10.67;;;;;;;;;;5014898;28;20201;-47
2022/12/23 02:18:43;;;;;;;12.17;10.87;;;;;;;;;;5014713;28;20217;-47
2022/12/23 02:21:31;;;;;;;12.57;10.90;;;;;;;;;;5014780;28;20288;-47
2022/12/23 02:24:16;;;;;;;10.43;9.10;;;;;;;;;;5014728;28;20293;-47
2022/12/23 02:26:54;;;;;;;13.70;10.53;;;;;;;;;;5014627;28;20765;-47
2022/12/23 02:29:29;;;;;;;11.13;10.03;;;;;;;;;;5014625;28;20193;-47
2022/12/23 02:31:57;;;;;;;11.50;10.03;;;;;;;;;;5014472;28;20698;-47
2022/12/23 02:34:28;;;;;;;10.77;9.70;;;;;;;;;;5014746;28;20311;-47
2022/12/23 02:36:59;;;;;;;11.77;10.53;;;;;;;;;;5014540;28;20317;-47
2022/12/23 02:39:32;;;;;;;11.10;9.90;;;;;;;;;;5014408;28;20241;-47
2022/12/23 02:42:01;;;;;;;13.37;10.70;;;;;;;;;;5014368;28;20280;-47
2022/12/23 02:44:30;;;;;;;11.57;10.33;;;;;;;;;;5014550;28;20202;-47
2022/12/23 02:46:59;;;;;;;11.90;10.57;;;;;;;;;;5014213;28;20209;-47
2022/12/23 02:49:29;;;;;;;11.53;10.33;;;;;;;;;;5014376;28;20209;-47
2022/12/23 02:51:57;;;;;;;12.10;10.27;;;;;;;;;;5014161;28;20291;-47
2022/12/23 02:54:26;;;;;;;12.03;10.03;;;;;;;;;;5014162;28;20197;-47
2022/12/23 02:56:53;;;;;;;12.27;10.60;;;;;;;;;;5014361;28;20211;-47
2022/12/23 02:59:20;;;;;;;12.20;10.30;;;;;;;;;;5014000;28;20225;-47
2022/12/23 03:01:47;;;;;;;14.87;10.97;;;;;;;;;;5014045;28;20201;-47
2022/12/23 03:04:14;;;;;;;11.73;10.53;;;;;;;;;;5013840;28;20241;-47
2022/12/23 03:06:41;;;;;;;12.10;10.33;;;;;;;;;;5014031;28;20197;-46
2022/12/23 03:09:07;;;;;;;11.23;10.03;;;;;;;;;;5013910;28;20260;-47
2022/12/23 03:11:40;;;;;;;12.10;10.17;;;;;;;;;;5014075;28;20251;-46
2022/12/23 03:14:14;;;;;;;12.93;11.23;;;;;;;;;;5013733;28;20209;-47
2022/12/23 03:16:47;;;;;;;13.03;11.63;;;;;;;;;;5013753;28;20679;-46
2022/12/23 03:19:19;;;;;;;12.60;11.30;;;;;;;;;;5013635;28;20742;-46
2022/12/23 03:21:47;;;;;;;11.30;10.10;;;;;;;;;;5013144;28;20213;-46
2022/12/23 03:24:17;;;;;;;11.30;10.10;;;;;;;;;;5013503;28;20635;-46
2022/12/23 03:26:48;;;;;;;11.53;10.13;;;;;;;;;;5013670;28;20223;-46
2022/12/23 03:29:16;;;;;;;11.47;10.07;;;;;;;;;;5013544;28;20217;-47
2022/12/23 03:31:43;;;;;;;12.13;10.60;;;;;;;;;;5013407;28;20203;-47
2022/12/23 03:34:11;;;;;;;11.63;10.03;;;;;;;;;;5013307;28;20219;-46
2022/12/23 03:36:40;;;;;;;11.80;10.60;;;;;;;;;;5013541;28;20201;-47
2022/12/23 03:39:09;;;;;;;12.30;10.53;;;;;;;;;;5013214;28;20252;-47
2022/12/23 03:41:36;;;;;;;13.20;10.93;;;;;;;;;;5013345;28;20661;-47
2022/12/23 03:44:04;;;;;;;11.63;9.97;;;;;;;;;;5013474;28;20229;-48
2022/12/23 03:46:30;;;;;;;12.03;10.83;;;;;;;;;;5013455;28;20209;-47
2022/12/23 03:48:58;;;;;;;12.70;10.73;;;;;;;;;;5013221;28;20197;-47
2022/12/23 03:51:27;;;;;;;11.50;10.30;;;;;;;;;;5013193;28;20252;-47
2022/12/23 03:53:57;;;;;;;11.53;10.33;;;;;;;;;;5013407;28;20223;-48
2022/12/23 03:56:25;;;;;;;11.93;10.57;;;;;;;;;;5013431;28;20198;-47
2022/12/23 03:58:54;;;;;;;13.57;11.67;;;;;;;;;;5013172;28;20209;-47
2022/12/23 04:01:25;;;;;;;11.10;10.00;;;;;;;;;;5012982;28;20209;-48
2022/12/23 04:03:54;;;;;;;10.93;9.83;;;;;;;;;;5013176;28;20202;-47
2022/12/23 04:06:20;;;;;;;10.07;8.87;;;;;;;;;;5012967;28;20201;-48
2022/12/23 04:08:48;;;;;;;10.90;9.80;;;;;;;;;;5012883;28;20600;-47
2022/12/23 04:11:15;;;;;;;11.93;10.63;;;;;;;;;;5012908;28;20252;-47
2022/12/23 04:13:41;;;;;;;13.63;11.13;;;;;;;;;;5012876;28;20213;-48
2022/12/23 04:16:07;;;;;;;11.43;10.20;;;;;;;;;;5012689;28;20197;-48
2022/12/23 04:18:33;;;;;;;11.43;9.73;;;;;;;;;;5012863;28;20305;-48
2022/12/23 04:20:59;;;;;;;11.30;10.10;;;;;;;;;;5012485;28;20269;-48
2022/12/23 04:23:25;;;;;;;11.40;10.23;;;;;;;;;;5012502;28;20263;-47
2022/12/23 04:25:51;;;;;;;12.17;10.87;;;;;;;;;;5012698;28;20241;-47
2022/12/23 04:28:19;;;;;;;12.40;10.97;;;;;;;;;;5012434;28;20205;-47
2022/12/23 04:30:45;;;;;;;11.97;9.43;;;;;;;;;;5012415;28;20734;-48
2022/12/23 04:33:11;;;;;;;11.60;10.07;;;;;;;;;;5011489;28;20209;-48
2022/12/23 04:35:37;;;;;;;11.17;9.73;;;;;;;;;;5012466;28;20232;-47
2022/12/23 04:38:03;;;;;;;11.90;10.43;;;;;;;;;;5011080;28;20202;-47
2022/12/23 04:40:29;;;;;;;11.60;10.40;;;;;;;;;;5012113;28;20244;-48
2022/12/23 04:42:55;;;;;;;11.53;9.80;;;;;;;;;;5012410;28;20186;-48
2022/12/23 04:45:22;;;;;;;11.63;10.43;;;;;;;;;;5012213;28;20197;-47
2022/12/23 04:47:48;;;;;;;11.97;10.23;;;;;;;;;;5012247;28;20201;-48
2022/12/23 04:50:15;;;;;;;11.40;10.20;;;;;;;;;;5012129;28;20278;-47
2022/12/23 04:52:41;;;;;;;12.93;10.53;;;;;;;;;;5012248;28;20198;-47
2022/12/23 04:55:07;;;;;;;11.33;9.67;;;;;;;;;;5012020;28;20197;-49
2022/12/23 04:57:33;;;;;;;11.07;9.43;;;;;;;;;;5012102;28;20193;-48
2022/12/23 04:59:59;;;;;;;11.60;9.90;;;;;;;;;;5011889;28;20733;-48
2022/12/23 05:02:27;;;;;;;11.60;10.10;;;;;;;;;;5011963;28;20197;-48
2022/12/23 05:04:53;;;;;;;11.37;10.17;;;;;;;;;;5012031;28;20886;-48
2022/12/23 05:07:18;;;;;;;10.77;9.60;;;;;;;;;;5011898;28;20280;-47
2022/12/23 05:09:44;;;;;;;11.50;10.30;;;;;;;;;;5012059;28;20198;-48
2022/12/23 05:12:10;;;;;;;11.60;10.07;;;;;;;;;;5011890;28;20197;-47
2022/12/23 05:14:36;;;;;;;12.20;10.63;;;;;;;;;;5011955;28;20205;-47
2022/12/23 05:17:04;;;;;;;11.33;9.87;;;;;;;;;;5011677;28;20202;-48
2022/12/23 05:19:31;;;;;;;12.00;10.23;;;;;;;;;;5011772;28;20847;-48
2022/12/23 05:21:57;;;;;;;11.47;10.27;;;;;;;;;;5011895;28;20202;-48
2022/12/23 05:24:23;;;;;;;10.33;9.07;;;;;;;;;;5011752;28;20685;-48
2022/12/23 05:26:49;;;;;;;11.70;9.93;;;;;;;;;;5011924;28;20251;-48
2022/12/23 05:29:15;;;;;;;11.60;10.33;;;;;;;;;;5011704;28;20198;-48
2022/12/23 05:31:41;;;;;;;12.37;10.13;;;;;;;;;;5011618;28;20210;-47
2022/12/23 05:34:07;;;;;;;13.13;11.13;;;;;;;;;;5011594;28;20312;-48
2022/12/23 05:36:34;;;;;;;14.23;10.83;;;;;;;;;;5011801;28;20194;-47
2022/12/23 05:39:00;;;;;;;14.00;10.63;;;;;;;;;;5011356;28;20737;-48
2022/12/23 05:41:26;;;;;;;13.77;10.60;;;;;;;;;;5011623;28;20296;-47
2022/12/23 05:43:53;;;;;;;13.80;10.87;;;;;;;;;;5012183;28;20220;-48
2022/12/23 05:46:19;;;;;;;11.93;10.53;;;;;;;;;;5015393;28;20209;-47
2022/12/23 05:48:45;;;;;;;12.87;10.20;;;;;;;;;;5015444;28;20205;-48
2022/12/23 05:51:11;;;;;;;13.77;10.70;;;;;;;;;;5015394;28;20286;-48
2022/12/23 05:53:38;;;;;;;12.00;9.93;;;;;;;;;;5015486;28;20193;-48
2022/12/23 05:56:04;;;;;;;12.47;10.33;;;;;;;;;;5015308;28;20197;-48
2022/12/23 05:58:31;;;;;;;11.60;10.00;;;;;;;;;;5015411;28;20666;-48
2022/12/23 06:00:57;;;;;;;10.97;9.67;;;;;;;;;;5015237;28;20284;-48
2022/12/23 06:03:23;;;;;;;11.23;10.13;;;;;;;;;;5015234;28;20269;-48
2022/12/23 06:05:49;;;;;;;10.63;9.50;;;;;;;;;;5015221;28;20296;-48
2022/12/23 06:08:15;;;;;;;10.97;9.60;;;;;;;;;;5015063;28;20209;-47
2022/12/23 06:10:43;;;;;;;23.10;17.37;;;;;;;;;;5015208;28;20194;-47
2022/12/23 06:13:09;;;;;;;18.63;15.13;;;;;;;;;;5015264;28;20228;-48
2022/12/23 06:15:35;;;;;;;14.33;11.63;;;;;;;;;;5015385;28;20672;-47
2022/12/23 06:18:01;;;;;;;12.43;10.13;;;;;;;;;;5015234;28;20320;-47
2022/12/23 06:20:27;;;;;;;11.50;10.07;;;;;;;;;;5014843;28;20229;-47
2022/12/23 06:22:53;;;;;;;11.80;9.90;;;;;;;;;;5015064;28;20284;-48
2022/12/23 06:25:19;;;;;;;12.23;10.17;;;;;;;;;;5014664;28;20651;-47
2022/12/23 06:27:46;;;;;;;12.77;10.20;;;;;;;;;;5015031;28;20457;-47
2022/12/23 06:30:13;;;;;;;10.83;9.27;;;;;;;;;;5014794;28;20252;-47
2022/12/23 06:32:39;;;;;;;12.90;10.50;;;;;;;;;;5014650;28;20648;-48
2022/12/23 06:35:06;;;;;;;14.27;11.23;;;;;;;;;;5014569;28;20221;-47
2022/12/23 06:37:32;;;;;;;13.87;10.60;;;;;;;;;;5014751;28;20209;-47
2022/12/23 06:39:57;;;;;;;14.07;10.40;;;;;;;;;;5014383;28;20257;-50
2022/12/23 06:42:23;;;;;;;14.87;10.97;;;;;;;;;;5014489;28;20292;-47
2022/12/23 06:44:51;;;;;;;13.73;10.23;;;;;;;;;;5014576;28;20206;-47
2022/12/23 06:47:17;;;;;;;12.50;10.03;;;;;;;;;;5014232;28;20205;-47
2022/12/23 06:49:43;;;;;;;12.17;9.07;;;;;;;;;;5014459;28;20261;-47
2022/12/23 06:52:09;;;;;;;11.63;9.17;;;;;;;;;;5014269;28;20292;-47
2022/12/23 06:54:35;;;;;;;12.93;10.10;;;;;;;;;;5014376;28;20442;-47
2022/12/23 06:57:01;;;;;;;14.13;10.30;;;;;;;;;;5013188;28;20233;-47
2022/12/23 06:59:28;;;;;;;11.10;9.60;;;;;;;;;;5014335;28;20233;-48
2022/12/23 07:01:56;;;;;;;11.20;8.90;;;;;;;;;;5014160;28;20216;-47
2022/12/23 07:04:21;;;;;;;10.77;8.70;;;;;;;;;;5014113;28;20201;-47
2022/12/23 07:06:47;;;;;;;11.83;9.30;;;;;;;;;;5014108;28;20570;-47
2022/12/23 07:09:13;;;;;;;11.17;9.23;;;;;;;;;;5013934;28;20197;-47
2022/12/23 07:11:39;;;;;;;12.60;9.67;;;;;;;;;;5013966;28;20248;-47
2022/12/23 07:14:05;;;;;;;13.00;9.73;;;;;;;;;;5013862;28;20228;-48
2022/12/23 07:16:31;;;;;;;10.93;9.20;;;;;;;;;;5013709;28;20284;-48
2022/12/23 07:18:59;;;;;;;18.23;11.93;;;;;;;;;;5013623;28;20205;-48
2022/12/23 07:21:25;;;;;;;17.17;11.90;;;;;;;;;;5013433;28;20201;-47
2022/12/23 07:23:51;;;;;;;16.40;11.70;;;;;;;;;;5013639;28;20224;-47
2022/12/23 07:26:16;;;;;;;16.27;11.03;;;;;;;;;;5013331;28;20202;-48
2022/12/23 07:28:46;;;;;;;18.23;12.30;;;;;;;;;;5013484;28;20198;-48
2022/12/23 07:31:12;;;;;;;22.00;12.53;;;;;;;;;;5013201;28;20205;-48
2022/12/23 07:33:38;;;;;;;22.43;12.57;;;;;;;;;;5013210;28;20194;-49
2022/12/23 07:36:06;;;;;;;21.53;13.50;;;;;;;;;;5013543;28;20571;-49
2022/12/23 07:38:32;;;;;;;21.27;12.87;;;;;;;;;;5013284;28;20202;-48
2022/12/23 07:40:58;;;;;;;19.87;12.67;;;;;;;;;;5013074;28;20233;-48
2022/12/23 07:43:24;;;;;;;20.93;13.93;;;;;;;;;;5013169;28;20289;-48
2022/12/23 07:45:50;;;;;;;21.00;13.67;;;;;;;;;;5013210;28;20582;-48
2022/12/23 07:48:16;;;;;;;21.37;12.90;;;;;;;;;;5013263;28;20212;-49
2022/12/23 07:50:42;;;;;;;22.17;13.33;;;;;;;;;;5013101;28;20668;-48
2022/12/23 07:53:09;;;;;;;19.73;12.63;;;;;;;;;;5013056;28;20198;-48
2022/12/23 07:55:35;;;;;;;21.17;13.87;;;;;;;;;;5012753;28;20212;-48
2022/12/23 07:58:01;;;;;;;20.80;11.73;;;;;;;;;;5012783;28;20679;-48
2022/12/23 08:00:27;;;;;;;20.97;13.67;;;;;;;;;;5012673;28;20232;-48
2022/12/23 08:02:53;;;;;;;18.00;12.77;;;;;;;;;;5012748;28;20292;-49
2022/12/23 08:05:19;;;;;;;25.27;14.47;;;;;;;;;;5012662;28;20255;-48
2022/12/23 08:07:48;;;;;;;19.93;13.10;;;;;;;;;;5012551;28;20197;-49
2022/12/23 08:10:15;;;;;;;21.40;14.03;;;;;;;;;;5012525;28;20252;-48
2022/12/23 08:12:41;;;;;;;21.83;13.90;;;;;;;;;;5012711;28;20206;-49
2022/12/23 08:15:08;;;;;;;24.67;15.13;;;;;;;;;;5012761;28;20206;-48
2022/12/23 08:17:34;;;;;;;25.97;15.37;;;;;;;;;;5010494;28;20194;-49
2022/12/23 08:20:00;;;;;;;20.97;14.53;;;;;;;;;;4999727;28;20345;-48
2022/12/23 08:22:26;;;;;;;22.83;13.90;;;;;;;;;;5002160;28;20676;-49
2022/12/23 08:24:52;;;;;;;20.33;13.47;;;;;;;;;;5000668;28;20198;-50
2022/12/23 08:27:19;;;;;;;24.07;14.50;;;;;;;;;;5000961;28;20204;-49
2022/12/23 08:29:45;;;;;;;22.27;14.27;;;;;;;;;;5002192;28;20221;-49
2022/12/23 08:32:11;;;;;;;22.00;14.03;;;;;;;;;;5000201;28;20669;-49
2022/12/23 08:34:37;;;;;;;23.47;14.97;;;;;;;;;;5000938;28;20214;-49
2022/12/23 08:37:03;;;;;;;21.87;13.53;;;;;;;;;;5002025;28;20569;-49
2022/12/23 08:39:29;;;;;;;20.57;13.57;;;;;;;;;;4999837;28;20747;-49
2022/12/23 08:41:55;;;;;;;18.20;12.97;;;;;;;;;;5001049;28;20193;-49
2022/12/23 08:44:25;;;;;;;21.07;13.07;;;;;;;;;;5001499;28;20195;-49
2022/12/23 08:46:52;;;;;;;21.43;13.87;;;;;;;;;;5003282;28;20776;-49
2022/12/23 08:49:17;;;;;;;22.07;14.03;;;;;;;;;;5011788;28;20605;-49
2022/12/23 08:51:44;;;;;;;21.37;13.63;;;;;;;;;;5011994;28;20259;-49
2022/12/23 08:54:10;;;;;;;21.00;13.63;;;;;;;;;;5011840;28;20206;-48
2022/12/23 08:56:39;;;;;;;20.70;14.30;;;;;;;;;;5011876;28;20700;-49
2022/12/23 08:59:05;;;;;;;19.60;12.63;;;;;;;;;;5011883;28;20208;-49
2022/12/23 09:01:34;;;;;;;20.93;13.33;;;;;;;;;;5011662;28;20210;-49
2022/12/23 09:04:01;;;;;;;20.10;13.03;;;;;;;;;;5011527;28;20578;-49
2022/12/23 09:06:28;;;;;;;19.17;14.27;;;;;;;;;;5011640;28;20292;-49
2022/12/23 09:08:54;;;;;;;18.57;12.93;;;;;;;;;;5011669;28;20255;-49
2022/12/23 09:11:21;;;;;;;23.30;14.20;;;;;;;;;;5011777;28;20197;-49
2022/12/23 09:13:47;;;;;;;21.37;13.90;;;;;;;;;;5011536;28;20714;-49
2022/12/23 09:16:14;;;;;;;21.73;13.23;;;;;;;;;;5011511;28;20189;-49
2022/12/23 09:18:41;;;;;;;19.80;13.70;;;;;;;;;;5010843;28;20525;-49
2022/12/23 09:21:09;;;;;;;22.57;14.13;;;;;;;;;;5011371;28;20293;-49
2022/12/23 09:23:35;;;;;;;22.20;14.20;;;;;;;;;;5011583;28;20201;-49
2022/12/23 09:26:03;;;;;;;25.87;14.57;;;;;;;;;;5011597;28;20255;-48
2022/12/23 09:28:29;;;;;;;22.57;14.37;;;;;;;;;;5011344;28;20208;-49
2022/12/23 09:30:55;;;;;;;26.20;15.80;;;;;;;;;;5011418;28;20620;-49
2022/12/23 09:33:21;;;;;;;25.27;15.77;;;;;;;;;;5011408;28;20189;-49
2022/12/23 09:35:48;;;;;;;25.30;14.93;;;;;;;;;;5011543;28;20630;-49
2022/12/23 09:38:14;;;;;;;26.07;15.33;;;;;;;;;;5011324;28;20592;-49
2022/12/23 09:40:41;;;;;;;29.73;17.33;;;;;;;;;;5011174;28;20229;-49
2022/12/23 09:43:15;;;;;;;25.27;15.40;;;;;;;;;;5011276;28;20288;-49
2022/12/23 09:45:48;;;;;;;26.53;17.07;;;;;;;;;;5011423;28;20200;-50
2022/12/23 09:48:17;;;;;;;26.60;16.07;;;;;;;;;;5011281;28;20267;-49
2022/12/23 09:50:44;;;;;;;24.57;14.73;;;;;;;;;;5011339;28;20672;-49
2022/12/23 09:53:13;;;;;;;24.77;15.17;;;;;;;;;;5011302;28;20208;-50
2022/12/23 09:55:43;;;;;;;22.57;14.93;;;;;;;;;;5011315;28;20307;-49
2022/12/23 09:58:15;;;;;;;28.83;15.63;;;;;;;;;;5011239;28;20194;-49
2022/12/23 10:00:43;;;;;;;28.87;16.13;;;;;;;;;;5011300;28;20225;-49
2022/12/23 10:03:15;;;;;;;31.27;18.43;;;;;;;;;;5011204;28;20206;-50
2022/12/23 10:05:46;;;;;;;30.97;17.10;;;;;;;;;;5011618;28;20229;-49
2022/12/23 10:08:16;;;;;;;32.53;17.53;;;;;;;;;;5011220;28;20640;-50
2022/12/23 10:10:44;;;;;;;27.07;15.90;;;;;;;;;;5000726;28;20198;-50
2022/12/23 10:13:14;;;;;;;32.17;15.97;;;;;;;;;;5011171;28;20552;-51
2022/12/23 10:15:42;;;;;;;27.00;15.13;;;;;;;;;;5011121;28;20208;-50
2022/12/23 10:18:11;;;;;;;29.07;15.90;;;;;;;;;;5008826;28;20683;-49
2022/12/23 10:20:41;;;;;;;30.03;16.23;;;;;;;;;;5009226;28;20230;-50
2022/12/23 10:23:13;;;;;;;33.70;15.60;;;;;;;;;;5010870;28;20744;-50
2022/12/23 10:25:43;;;;;;;27.87;15.27;;;;;;;;;;5011277;28;20305;-50
2022/12/23 10:28:10;;;;;;;28.20;15.13;;;;;;;;;;5011031;28;20695;-49
2022/12/23 10:30:38;;;;;;;33.77;16.83;;;;;;;;;;5011069;28;20709;-50
2022/12/23 10:33:06;;;;;;;31.07;16.87;;;;;;;;;;5014594;28;20202;-49
2022/12/23 10:35:39;;;;;;;34.37;17.70;;;;;;;;;;5014345;28;20225;-50
2022/12/23 10:38:11;;;;;;;33.47;18.30;;;;;;;;;;5014611;28;20201;-50
2022/12/23 10:40:44;;;;;;;33.13;17.90;;;;;;;;;;5014350;28;20714;-50
2022/12/23 10:43:16;;;;;;;30.20;16.60;;;;;;;;;;5014508;28;20206;-50
2022/12/23 10:45:48;;;;;;;28.80;16.40;;;;;;;;;;5014503;28;20205;-50
2022/12/23 10:48:19;;;;;;;30.40;16.10;;;;;;;;;;5014330;28;20205;-49
2022/12/23 10:50:50;;;;;;;30.67;16.30;;;;;;;;;;5014397;28;20549;-50
2022/12/23 10:53:23;;;;;;;31.97;17.07;;;;;;;;;;5014284;28;20209;-49
2022/12/23 10:55:49;;;;;;;26.97;15.60;;;;;;;;;;5014488;28;20232;-49
2022/12/23 10:58:17;;;;;;;24.90;14.83;;;;;;;;;;5014249;28;20204;-49
2022/12/23 11:00:45;;;;;;;26.07;15.13;;;;;;;;;;5014219;28;20234;-49
2022/12/23 11:03:16;;;;;;;23.80;13.93;;;;;;;;;;5005561;28;20247;-49
2022/12/23 11:05:42;;;;;;;24.70;15.00;;;;;;;;;;5013725;28;20206;-49
2022/12/23 11:08:09;;;;;;;23.20;13.87;;;;;;;;;;5013793;28;20248;-49
2022/12/23 11:10:35;;;;;;;19.37;13.37;;;;;;;;;;5013573;28;20252;-49
2022/12/23 11:13:01;;;;;;;20.97;12.97;;;;;;;;;;5013734;28;20197;-49
2022/12/23 11:15:30;;;;;;;31.00;18.27;;;;;;;;;;5018500;28;20263;-47
2022/12/23 11:18:00;;;;;;;24.57;14.70;;;;;;;;;;5031732;28;20686;-48
2022/12/23 11:20:26;;;;;;;22.00;12.83;;;;;;;;;;5032919;28;20220;-48
2022/12/23 11:22:53;;;;;;;24.37;12.70;;;;;;;;;;5033393;28;20227;-48
2022/12/23 11:25:26;;;;;;;25.87;13.90;;;;;;;;;;5033288;28;20244;-48
2022/12/23 11:27:54;;;;;;;27.17;13.50;;;;;;;;;;5033299;28;20321;-49
2022/12/23 11:30:27;;;;;;;28.13;13.63;;;;;;;;;;5032993;28;20189;-49
2022/12/23 11:32:55;;;;;;;30.70;14.80;;;;;;;;;;5033098;28;20199;-48
2022/12/23 11:35:24;;;;;;;28.97;14.87;;;;;;;;;;5032915;28;20332;-48
2022/12/23 11:37:50;;;;;;;30.07;16.00;;;;;;;;;;5033129;28;20223;-48
2022/12/23 11:40:21;;;;;;;34.33;16.33;;;;;;;;;;5033026;28;20244;-47
2022/12/23 11:42:47;;;;;;;39.33;18.40;;;;;;;;;;5032691;28;20204;-48
2022/12/23 11:45:20;;;;;;;40.53;18.43;;;;;;;;;;5032944;28;20655;-49
2022/12/23 11:47:46;;;;;;;44.27;19.23;;;;;;;;;;5031244;28;20205;-47
2022/12/23 11:50:30;;;;;;;41.20;18.77;;;;;;;;;;5032425;28;20634;-50
2022/12/23 11:53:00;;;;;;;37.83;17.63;;;;;;;;;;5032596;28;20913;-47
2022/12/23 11:55:28;;;;;;;37.63;17.10;;;;;;;;;;5032379;28;20211;-48
2022/12/23 11:57:55;;;;;;;40.93;16.87;;;;;;;;;;5032364;28;20580;-47
2022/12/23 12:00:22;;;;;;;34.20;16.07;;;;;;;;;;5032075;28;20220;-47
2022/12/23 12:02:49;;;;;;;34.30;16.20;;;;;;;;;;5032397;28;20197;-48
2022/12/23 12:05:21;;;;;;;36.63;16.13;;;;;;;;;;5032161;28;20192;-47
2022/12/23 12:07:50;;;;;;;32.23;15.50;;;;;;;;;;5032395;28;20232;-47
2022/12/23 12:10:17;;;;;;;32.83;16.47;;;;;;;;;;5032038;28;20205;-47
2022/12/23 12:12:43;;;;;;;35.13;15.40;;;;;;;;;;5032192;28;20204;-48
2022/12/23 12:15:18;;;;;;;34.37;15.60;;;;;;;;;;5031834;28;20284;-47
2022/12/23 12:17:46;;;;;;;35.93;17.03;;;;;;;;;;5031940;28;20201;-47
2022/12/23 12:20:22;;;;;;;34.63;17.10;;;;;;;;;;5031903;28;20274;-48
2022/12/23 12:22:53;;;;;;;39.20;17.90;;;;;;;;;;5031893;28;20199;-48
2022/12/23 12:25:20;;;;;;;38.53;19.23;;;;;;;;;;5031815;28;20219;-48
2022/12/23 12:27:50;;;;;;;28.67;15.43;;;;;;;;;;5031828;28;20205;-48
2022/12/23 12:30:17;;;;;;;28.70;15.73;;;;;;;;;;5031821;28;20272;-49
2022/12/23 12:32:46;;;;;;;27.27;15.63;;;;;;;;;;5032071;28;20617;-48
2022/12/23 12:35:14;;;;;;;25.37;14.90;;;;;;;;;;5031952;28;20271;-48
2022/12/23 12:37:42;;;;;;;28.77;17.60;;;;;;;;;;5032222;28;20287;-48
2022/12/23 12:40:24;;;;;;;25.70;16.27;;;;;;;;;;5031801;28;20240;-47
2022/12/23 12:42:54;;;;;;;23.73;14.77;;;;;;;;;;5032157;28;20200;-48
2022/12/23 12:45:21;;;;;;;22.07;14.77;;;;;;;;;;5031794;28;20204;-49
2022/12/23 12:47:51;;;;;;;23.10;13.93;;;;;;;;;;5031989;28;20262;-48
2022/12/23 12:50:19;;;;;;;25.10;15.83;;;;;;;;;;5030574;28;20605;-48
2022/12/23 12:52:45;;;;;;;26.97;15.00;;;;;;;;;;5031948;28;20207;-48
2022/12/23 12:55:16;;;;;;;24.50;14.40;;;;;;;;;;5031093;28;20229;-49
2022/12/23 12:57:42;;;;;;;24.17;14.00;;;;;;;;;;5031767;28;20219;-48
2022/12/23 13:00:13;;;;;;;22.73;13.53;;;;;;;;;;5031588;28;20583;-49
2022/12/23 13:03:00;;;;;;;24.47;14.27;;;;;;;;;;5032027;28;20284;-48
2022/12/23 13:05:32;;;;;;;21.33;13.93;;;;;;;;;;5031725;28;20635;-48
2022/12/23 13:08:06;;;;;;;24.27;14.40;;;;;;;;;;5031771;28;20278;-48
2022/12/23 13:10:38;;;;;;;26.20;14.13;;;;;;;;;;5031399;28;20204;-49
2022/12/23 13:13:07;;;;;;;24.83;14.30;;;;;;;;;;5031599;28;20310;-49
2022/12/23 13:15:37;;;;;;;26.10;13.87;;;;;;;;;;5031410;28;20247;-49
2022/12/23 13:18:11;;;;;;;30.17;14.43;;;;;;;;;;5031650;28;20200;-48
2022/12/23 13:20:39;;;;;;;27.37;15.13;;;;;;;;;;5031369;28;20695;-49
2022/12/23 13:23:09;;;;;;;30.00;13.87;;;;;;;;;;5031509;28;20199;-50
2022/12/23 13:25:40;;;;;;;25.43;14.13;;;;;;;;;;5031351;28;20205;-48
2022/12/23 13:28:10;;;;;;;26.97;14.23;;;;;;;;;;5031370;28;20193;-48
2022/12/23 13:30:39;;;;;;;25.47;13.73;;;;;;;;;;5031375;28;20189;-48
2022/12/23 13:33:14;;;;;;;28.03;16.27;;;;;;;;;;5031429;28;20219;-48
2022/12/23 13:35:48;;;;;;;25.30;12.53;;;;;;;;;;5031392;28;20226;-46
2022/12/23 13:38:21;;;;;;;25.83;12.53;;;;;;;;;;5031257;28;20193;-48
2022/12/23 13:40:53;;;;;;;26.77;13.93;;;;;;;;;;5031235;28;20299;-48
2022/12/23 13:43:20;;;;;;;22.23;13.33;;;;;;;;;;5030945;28;20540;-48
2022/12/23 13:45:47;;;;;;;25.73;12.13;;;;;;;;;;5030983;28;20223;-48
2022/12/23 13:48:30;;;;;;;23.87;12.13;;;;;;;;;;5031232;28;20197;-48
2022/12/23 13:51:00;;;;;;;20.37;11.47;;;;;;;;;;5031178;28;20197;-48
2022/12/23 13:53:33;;;;;;;18.63;11.20;;;;;;;;;;5031304;28;20200;-48
2022/12/23 13:56:06;;;;;;;40.73;34.73;;;;;;;;;;5031260;28;20272;-50
2022/12/23 13:58:32;;;;;;;19.33;13.83;;;;;;;;;;5029029;28;20278;-48
2022/12/23 14:01:18;;;;;;;19.93;14.57;;;;;;;;;;5030614;28;20252;-48
2022/12/23 14:03:47;;;;;;;18.43;11.80;;;;;;;;;;5030803;28;20204;-48
2022/12/23 14:06:21;;;;;;;19.77;11.80;;;;;;;;;;5033219;28;20201;-48
2022/12/23 14:08:47;;;;;;;16.17;10.57;;;;;;;;;;5034532;28;20212;-47
2022/12/23 14:11:18;;;;;;;17.27;11.57;;;;;;;;;;5034364;28;20193;-48
2022/12/23 14:13:50;;;;;;;14.53;10.17;;;;;;;;;;5034554;28;20201;-48
2022/12/23 14:16:26;;;;;;;14.27;10.33;;;;;;;;;;5034214;28;20201;-48
2022/12/23 14:19:00;;;;;;;14.50;9.73;;;;;;;;;;5034505;28;20242;-48
2022/12/23 14:21:31;;;;;;;11.77;8.93;;;;;;;;;;5034552;28;20233;-48
2022/12/23 14:24:02;;;;;;;11.30;8.67;;;;;;;;;;5034507;28;20626;-48
2022/12/23 14:26:39;;;;;;;11.93;8.50;;;;;;;;;;5034366;28;20209;-46
2022/12/23 14:29:18;;;;;;;12.60;9.13;;;;;;;;;;5034649;28;20668;-46
2022/12/23 14:31:46;;;;;;;15.50;10.73;;;;;;;;;;5034340;28;20831;-48
2022/12/23 14:34:27;;;;;;;14.10;11.20;;;;;;;;;;5034268;28;20674;-47
2022/12/23 14:37:12;;;;;;;25.03;19.17;;;;;;;;;;5034412;28;20380;-48
2022/12/23 14:39:38;;;;;;;18.27;13.00;;;;;;;;;;5033977;28;20236;-48
2022/12/23 14:42:09;;;;;;;16.40;11.40;;;;;;;;;;5033659;28;20204;-48
2022/12/23 14:44:44;;;;;;;17.23;13.10;;;;;;;;;;5031957;28;20262;-47
2022/12/23 14:47:25;;;;;;;14.53;10.40;;;;;;;;;;5033563;28;20815;-48
2022/12/23 14:49:51;;;;;;;16.10;11.80;;;;;;;;;;5033372;28;20568;-47